createdAt,value
2019-06-20T00:01:06.185Z,100798.41
2019-06-20T00:03:32.324Z,100801.75
2019-06-20T00:05:58.479Z,100806.13
2019-06-20T00:08:24.643Z,100805.91
2019-06-20T00:10:50.803Z,100809.25
2019-06-20T00:13:16.944Z,100817.77
2019-06-20T00:15:43.114Z,100814.59
2019-06-20T00:18:09.298Z,100826.59
2019-06-20T00:20:35.439Z,100816.33
2019-06-20T00:23:01.588Z,100826.23
2019-06-20T00:25:27.764Z,100827.61
2019-06-20T00:27:53.923Z,100824.84
2019-06-20T00:30:20.068Z,100817.48
2019-06-20T00:32:46.231Z,100820.83
2019-06-20T00:35:12.372Z,100828.33
2019-06-20T00:37:38.554Z,100826.95
2019-06-20T00:40:04.700Z,100823.77
2019-06-20T00:42:30.854Z,100823.77
2019-06-20T00:44:57.023Z,100821.58
2019-06-20T00:47:23.167Z,100813.64
2019-06-20T00:49:49.314Z,100819.17
2019-06-20T00:52:15.490Z,100814.61
2019-06-20T00:54:41.642Z,100813.41
2019-06-20T00:57:07.777Z,100817.15
2019-06-20T00:59:33.960Z,100818.53
2019-06-20T01:02:00.135Z,100819.69
2019-06-20T01:04:26.265Z,100823.84
2019-06-20T01:06:52.443Z,100819.24
2019-06-20T01:09:18.595Z,100818.44
2019-06-20T01:11:44.726Z,100819.05
2019-06-20T01:14:10.907Z,100811.91
2019-06-20T01:16:37.044Z,100813.88
2019-06-20T01:19:03.198Z,100814.45
2019-06-20T01:21:29.402Z,100822.75
2019-06-20T01:23:55.497Z,100818.38
2019-06-20T01:26:21.658Z,100822.30
2019-06-20T01:28:47.849Z,100819.34
2019-06-20T01:31:13.980Z,100827.64
2019-06-20T01:33:40.126Z,100819.13
2019-06-20T01:36:06.307Z,100826.26
2019-06-20T01:38:32.448Z,100823.27
2019-06-20T01:40:58.600Z,100824.66
2019-06-20T01:43:24.781Z,100828.00
2019-06-20T01:45:50.921Z,100824.20
2019-06-20T01:48:17.062Z,100815.33
2019-06-20T01:50:43.252Z,100817.06
2019-06-20T01:53:09.403Z,100817.67
2019-06-20T01:55:35.542Z,100821.44
2019-06-20T01:58:01.723Z,100819.83
2019-06-20T02:00:27.877Z,100816.07
2019-06-20T02:02:53.997Z,100824.95
2019-06-20T02:05:20.186Z,100826.10
2019-06-20T02:07:46.331Z,100827.48
2019-06-20T02:10:12.479Z,100825.30
2019-06-20T02:12:38.668Z,100825.88
2019-06-20T02:15:04.801Z,100830.83
2019-06-20T02:17:30.945Z,100837.48
2019-06-20T02:19:57.125Z,100830.96
2019-06-20T02:22:23.265Z,100833.50
2019-06-20T02:24:49.407Z,100837.65
2019-06-20T02:27:15.569Z,100837.42
2019-06-20T02:29:41.717Z,100835.02
2019-06-20T02:32:07.886Z,100839.16
2019-06-20T02:34:34.029Z,100839.74
2019-06-20T02:37:00.175Z,100840.55
2019-06-20T02:39:26.363Z,100840.13
2019-06-20T02:41:52.496Z,100840.70
2019-06-20T02:44:29.989Z,100842.44
2019-06-20T02:46:46.593Z,100844.41
2019-06-20T02:49:12.767Z,100843.24
2019-06-20T02:51:38.924Z,100842.22
2019-06-20T02:54:05.058Z,100840.03
2019-06-20T02:56:31.196Z,100844.98
2019-06-20T02:58:57.385Z,100860.98
2019-06-20T03:01:23.531Z,100863.53
2019-06-20T03:03:49.688Z,100864.71
2019-06-20T03:06:15.854Z,100867.83
2019-06-20T03:08:42.008Z,100867.37
2019-06-20T03:11:08.155Z,100862.23
2019-06-20T03:13:34.327Z,100867.95
2019-06-20T03:16:00.544Z,100873.88
2019-06-20T03:18:26.681Z,100872.04
2019-06-20T03:20:52.864Z,100876.77
2019-06-20T03:23:19.001Z,100869.62
2019-06-20T03:25:45.143Z,100874.16
2019-06-20T03:28:11.327Z,100872.20
2019-06-20T03:30:37.464Z,100869.20
2019-06-20T03:33:03.621Z,100870.36
2019-06-20T03:35:29.811Z,100880.03
2019-06-20T03:37:55.954Z,100877.27
2019-06-20T03:40:22.098Z,100883.53
2019-06-20T03:42:48.278Z,100880.19
2019-06-20T03:45:14.436Z,100889.29
2019-06-20T03:47:40.583Z,100878.00
2019-06-20T03:50:06.780Z,100882.73
2019-06-20T03:52:32.911Z,100873.63
2019-06-20T03:54:59.053Z,100885.04
2019-06-20T03:57:25.226Z,100879.97
2019-06-20T03:59:51.374Z,100884.11
2019-06-20T04:02:17.525Z,100886.88
2019-06-20T04:04:43.681Z,100892.98
2019-06-20T04:07:09.870Z,100894.01
2019-06-20T04:09:36.013Z,100890.80
2019-06-20T04:12:02.152Z,100891.02
2019-06-20T04:14:28.332Z,100897.48
2019-06-20T04:16:54.490Z,100902.36
2019-06-20T04:19:20.623Z,100903.73
2019-06-20T04:21:46.807Z,100898.21
2019-06-20T04:24:12.961Z,100901.55
2019-06-20T04:26:39.099Z,100907.66
2019-06-20T04:29:05.292Z,100907.20
2019-06-20T04:31:31.469Z,100910.57
2019-06-20T04:33:57.618Z,100914.55
2019-06-20T04:36:23.789Z,100909.02
2019-06-20T04:38:49.939Z,100915.12
2019-06-20T04:41:16.094Z,100922.38
2019-06-20T04:43:42.267Z,100933.58
2019-06-20T04:46:08.422Z,100937.42
2019-06-20T04:48:34.559Z,100945.13
2019-06-20T04:51:00.742Z,100944.83
2019-06-20T04:53:26.906Z,100943.64
2019-06-20T04:55:53.039Z,100939.73
2019-06-20T04:58:19.218Z,100942.06
2019-06-20T05:00:45.367Z,100940.22
2019-06-20T05:03:11.507Z,100940.38
2019-06-20T05:05:37.695Z,100949.66
2019-06-20T05:08:03.942Z,100949.39
2019-06-20T05:10:30.079Z,100953.95
2019-06-20T05:12:56.291Z,100955.03
2019-06-20T05:15:22.388Z,100955.91
2019-06-20T05:17:48.529Z,100958.45
2019-06-20T05:20:14.708Z,100963.74
2019-06-20T05:22:40.863Z,100959.37
2019-06-20T05:25:07.006Z,100963.09
2019-06-20T05:27:33.200Z,100965.63
2019-06-20T05:29:59.345Z,100969.42
2019-06-20T05:32:25.561Z,100965.13
2019-06-20T05:34:51.764Z,100965.85
2019-06-20T05:37:17.892Z,100971.80
2019-06-20T05:39:44.071Z,100975.41
2019-06-20T05:42:10.313Z,100973.56
2019-06-20T05:44:36.494Z,100980.70
2019-06-20T05:47:12.444Z,100982.77
2019-06-20T05:49:30.633Z,100983.80
2019-06-20T05:51:56.758Z,100988.87
2019-06-20T05:54:22.903Z,100988.61
2019-06-20T05:56:49.088Z,100990.37
2019-06-20T05:59:15.236Z,100997.61
2019-06-20T06:01:41.381Z,100998.08
2019-06-20T06:04:07.564Z,101000.38
2019-06-20T06:06:33.695Z,101001.09
2019-06-20T06:08:59.832Z,101001.76
2019-06-20T06:11:26.020Z,101005.90
2019-06-20T06:13:53.338Z,101004.63
2019-06-20T06:16:26.118Z,101008.44
2019-06-20T06:18:47.509Z,101013.15
2019-06-20T06:21:13.658Z,101018.82
2019-06-20T06:23:39.794Z,101016.72
2019-06-20T06:26:05.987Z,101013.64
2019-06-20T06:28:32.136Z,101010.88
2019-06-20T06:30:58.283Z,101011.60
2019-06-20T06:33:24.472Z,101007.69
2019-06-20T06:35:50.617Z,101010.56
2019-06-20T06:38:22.162Z,101004.93
2019-06-20T06:40:44.770Z,101012.58
2019-06-20T06:43:10.887Z,101016.98
2019-06-20T06:45:37.039Z,101013.88
2019-06-20T06:48:03.228Z,101019.31
2019-06-20T06:50:29.362Z,101026.41
2019-06-20T06:52:55.520Z,101029.89
2019-06-20T06:55:21.689Z,101028.28
2019-06-20T06:57:47.835Z,101025.84
2019-06-20T07:00:14.011Z,101027.70
2019-06-20T07:02:40.162Z,101029.44
2019-06-20T07:05:06.316Z,101032.11
2019-06-20T07:07:32.504Z,101033.89
2019-06-20T07:09:58.646Z,101036.91
2019-06-20T07:12:24.800Z,101039.20
2019-06-20T07:14:51.006Z,101037.33
2019-06-20T07:17:17.143Z,101039.17
2019-06-20T07:19:43.298Z,101038.71
2019-06-20T07:22:09.486Z,101040.09
2019-06-20T07:24:35.809Z,101037.80
2019-06-20T07:27:02.176Z,101031.23
2019-06-20T07:29:28.354Z,101034.00
2019-06-20T07:31:54.558Z,101028.36
2019-06-20T07:34:20.670Z,101032.27
2019-06-20T07:36:46.822Z,101032.51
2019-06-20T07:39:12.975Z,101033.89
2019-06-20T07:41:39.134Z,101033.89
2019-06-20T07:44:05.553Z,101042.59
2019-06-20T07:46:31.731Z,101046.00
2019-06-20T07:48:57.901Z,101043.09
2019-06-20T07:51:24.141Z,101042.87
2019-06-20T07:53:50.386Z,101039.21
2019-06-20T07:56:16.510Z,101038.52
2019-06-20T07:58:42.711Z,101043.70
2019-06-20T08:01:08.843Z,101046.00
2019-06-20T08:03:34.987Z,101042.66
2019-06-20T08:06:01.164Z,101041.66
2019-06-20T08:08:27.307Z,101041.34
2019-06-20T08:10:53.453Z,101044.39
2019-06-20T08:13:19.640Z,101045.73
2019-06-20T08:15:45.786Z,101036.73
2019-06-20T08:18:11.946Z,101037.61
2019-06-20T08:20:38.115Z,101037.61
2019-06-20T08:23:04.263Z,101039.33
2019-06-20T08:25:30.439Z,101038.80
2019-06-20T08:27:57.797Z,101037.88
2019-06-20T08:30:24.457Z,101039.26
2019-06-20T08:32:50.616Z,101042.97
2019-06-20T08:35:16.871Z,101050.06
2019-06-20T08:37:43.029Z,101050.72
2019-06-20T08:40:09.167Z,101053.16
2019-06-20T08:42:35.334Z,101053.97
2019-06-20T08:45:01.848Z,101054.63
2019-06-20T08:47:28.056Z,101055.41
2019-06-20T08:49:55.187Z,101062.58
2019-06-20T08:52:22.105Z,101058.78
2019-06-20T08:54:48.243Z,101062.58
2019-06-20T08:57:14.425Z,101057.89
2019-06-20T08:59:40.557Z,101062.83
2019-06-20T09:02:06.709Z,101059.27
2019-06-20T09:04:32.898Z,101058.55
2019-06-20T09:07:00.301Z,101059.50
2019-06-20T09:09:26.901Z,101055.93
2019-06-20T09:11:53.897Z,101056.65
2019-06-20T09:14:21.102Z,101061.56
2019-06-20T09:16:48.075Z,101069.86
2019-06-20T09:19:14.264Z,101068.91
2019-06-20T09:21:40.419Z,101070.52
2019-06-20T09:24:06.554Z,101080.87
2019-06-20T09:26:32.720Z,101080.87
2019-06-20T09:28:59.338Z,101081.25
2019-06-20T09:31:25.691Z,101081.91
2019-06-20T09:33:52.631Z,101071.67
2019-06-20T09:36:19.762Z,101081.11
2019-06-20T09:38:45.917Z,101084.33
2019-06-20T09:41:12.072Z,101078.00
2019-06-20T09:43:38.248Z,101086.72
2019-06-20T09:46:04.397Z,101090.52
2019-06-20T09:48:30.544Z,101091.89
2019-06-20T09:50:57.041Z,101094.43
2019-06-20T09:53:23.263Z,101100.41
2019-06-20T09:55:50.018Z,101095.15
2019-06-20T09:58:16.348Z,101097.66
2019-06-20T10:00:42.478Z,101099.03
2019-06-20T10:03:08.747Z,101103.44
2019-06-20T10:05:35.047Z,101111.47
2019-06-20T10:08:01.170Z,101110.52
2019-06-20T10:10:27.327Z,101115.92
2019-06-20T10:12:53.758Z,101119.98
2019-06-20T10:15:19.948Z,101116.19
2019-06-20T10:17:47.381Z,101120.07
2019-06-20T10:20:14.000Z,101123.41
2019-06-20T10:22:40.150Z,101125.05
2019-06-20T10:25:06.306Z,101122.63
2019-06-20T10:27:32.472Z,101119.98
2019-06-20T10:30:13.503Z,101119.73
2019-06-20T10:32:26.504Z,101121.11
2019-06-20T10:34:52.757Z,101120.99
2019-06-20T10:37:18.911Z,101121.86
2019-06-20T10:39:46.132Z,101128.02
2019-06-20T10:42:12.534Z,101128.02
2019-06-20T10:44:38.690Z,101119.41
2019-06-20T10:47:04.847Z,101124.73
2019-06-20T10:49:31.047Z,101132.09
2019-06-20T10:51:57.196Z,101128.42
2019-06-20T10:54:23.323Z,101121.30
2019-06-20T10:56:49.520Z,101129.56
2019-06-20T10:59:15.722Z,101130.17
2019-06-20T11:01:42.875Z,101129.34
2019-06-20T11:04:09.822Z,101133.39
2019-06-20T11:06:35.954Z,101137.00
2019-06-20T11:09:02.089Z,101133.59
2019-06-20T11:11:28.261Z,101126.61
2019-06-20T11:13:54.392Z,101136.23
2019-06-20T11:16:20.549Z,101140.92
2019-06-20T11:18:46.731Z,101150.63
2019-06-20T11:21:12.882Z,101142.53
2019-06-20T11:23:39.400Z,101142.53
2019-06-20T11:26:05.897Z,101147.41
2019-06-20T11:28:32.034Z,101148.39
2019-06-20T11:31:00.612Z,101142.86
2019-06-20T11:33:26.109Z,101151.65
2019-06-20T11:35:52.244Z,101148.22
2019-06-20T11:38:18.432Z,101144.27
2019-06-20T11:40:44.627Z,101144.19
2019-06-20T11:43:10.775Z,101144.77
2019-06-20T11:45:37.637Z,101133.94
2019-06-20T11:48:04.971Z,101137.95
2019-06-20T11:50:31.142Z,101141.74
2019-06-20T11:52:57.323Z,101138.32
2019-06-20T11:55:23.461Z,101144.51
2019-06-20T11:57:49.627Z,101139.94
2019-06-20T12:00:15.801Z,101146.03
2019-06-20T12:02:42.755Z,101141.89
2019-06-20T12:05:09.810Z,101140.27
2019-06-20T12:07:35.983Z,101138.75
2019-06-20T12:10:02.169Z,101141.08
2019-06-20T12:12:28.375Z,101142.47
2019-06-20T12:14:54.522Z,101149.92
2019-06-20T12:17:20.667Z,101162.23
2019-06-20T12:19:46.848Z,101161.58
2019-06-20T12:22:12.996Z,101160.54
2019-06-20T12:24:40.002Z,101171.83
2019-06-20T12:27:07.067Z,101169.98
2019-06-20T12:29:33.233Z,101174.02
2019-06-20T12:31:59.362Z,101178.02
2019-06-20T12:34:25.527Z,101184.84
2019-06-20T12:36:51.663Z,101169.41
2019-06-20T12:39:17.849Z,101182.22
2019-06-20T12:41:45.513Z,101187.74
2019-06-20T12:44:11.723Z,101183.02
2019-06-20T12:46:39.404Z,101186.30
2019-06-20T12:49:05.760Z,101181.84
2019-06-20T12:51:31.900Z,101186.94
2019-06-20T12:53:58.100Z,101183.69
2019-06-20T12:56:24.260Z,101191.08
2019-06-20T12:58:50.425Z,101196.69
2019-06-20T13:01:16.590Z,101196.46
2019-06-20T13:03:42.870Z,101192.69
2019-06-20T13:06:09.052Z,101195.66
2019-06-20T13:08:35.241Z,101191.72
2019-06-20T13:11:01.400Z,101196.84
2019-06-20T13:13:27.537Z,101198.88
2019-06-20T13:15:53.724Z,101199.80
2019-06-20T13:18:20.200Z,101210.66
2019-06-20T13:20:46.556Z,101211.34
2019-06-20T13:23:12.754Z,101221.33
2019-06-20T13:25:39.557Z,101230.91
2019-06-20T13:28:06.778Z,101232.88
2019-06-20T13:30:32.979Z,101225.16
2019-06-20T13:32:59.119Z,101228.23
2019-06-20T13:35:25.283Z,101228.05
2019-06-20T13:37:51.540Z,101227.98
2019-06-20T13:40:17.682Z,101223.82
2019-06-20T13:42:44.277Z,101221.66
2019-06-20T13:45:13.338Z,101216.59
2019-06-20T13:47:40.249Z,101215.55
2019-06-20T13:50:07.517Z,101213.16
2019-06-20T13:52:34.165Z,101211.04
2019-06-20T13:55:00.512Z,101217.99
2019-06-20T13:57:26.678Z,101213.51
2019-06-20T13:59:54.434Z,101226.52
2019-06-20T14:02:20.773Z,101222.20
2019-06-20T14:04:48.275Z,101226.98
2019-06-20T14:07:14.693Z,101231.58
2019-06-20T14:09:41.591Z,101236.20
2019-06-20T14:12:08.701Z,101244.73
2019-06-20T14:14:34.883Z,101247.26
2019-06-20T14:17:01.023Z,101252.86
2019-06-20T14:19:27.187Z,101252.78
2019-06-20T14:21:54.329Z,101258.08
2019-06-20T14:24:20.803Z,101258.31
2019-06-20T14:26:48.186Z,101263.17
2019-06-20T14:29:14.506Z,101261.97
2019-06-20T14:31:40.661Z,101276.98
2019-06-20T14:34:06.801Z,101273.98
2019-06-20T14:36:32.984Z,101269.70
2019-06-20T14:38:59.168Z,101272.61
2019-06-20T14:41:25.329Z,101272.38
2019-06-20T14:43:51.880Z,101277.22
2019-06-20T14:46:18.120Z,101273.51
2019-06-20T14:48:45.544Z,101282.70
2019-06-20T14:51:12.132Z,101277.55
2019-06-20T14:53:38.311Z,101288.02
2019-06-20T14:56:04.468Z,101286.41
2019-06-20T14:58:30.626Z,101289.75
2019-06-20T15:00:56.797Z,101286.17
2019-06-20T15:03:22.957Z,101302.99
2019-06-20T15:05:50.172Z,101301.14
2019-06-20T15:08:16.668Z,101308.28
2019-06-20T15:10:42.839Z,101301.14
2019-06-20T15:13:08.985Z,101303.91
2019-06-20T15:15:35.132Z,101298.94
2019-06-20T15:18:01.320Z,101302.84
2019-06-20T15:20:27.466Z,101299.61
2019-06-20T15:22:54.685Z,101304.56
2019-06-20T15:25:21.186Z,101316.66
2019-06-20T15:27:49.555Z,101316.31
2019-06-20T15:30:15.224Z,101318.02
2019-06-20T15:32:55.809Z,101315.25
2019-06-20T15:35:09.294Z,101309.81
2019-06-20T15:37:35.487Z,101308.20
2019-06-20T15:40:01.892Z,101312.34
2019-06-20T15:42:28.177Z,101310.95
2019-06-20T15:44:55.479Z,101316.98
2019-06-20T15:47:21.771Z,101314.47
2019-06-20T15:49:48.328Z,101311.27
2019-06-20T15:52:14.476Z,101316.56
2019-06-20T15:54:40.610Z,101320.13
2019-06-20T15:57:06.823Z,101322.66
2019-06-20T15:59:32.969Z,101326.81
2019-06-20T16:01:59.118Z,101326.00
2019-06-20T16:04:25.300Z,101332.34
2019-06-20T16:06:51.452Z,101332.91
2019-06-20T16:09:17.625Z,101330.95
2019-06-20T16:11:43.859Z,101332.33
2019-06-20T16:14:09.971Z,101326.08
2019-06-20T16:16:36.121Z,101340.38
2019-06-20T16:19:02.311Z,101340.57
2019-06-20T16:21:28.496Z,101341.38
2019-06-20T16:23:54.660Z,101345.32
2019-06-20T16:26:20.865Z,101341.38
2019-06-20T16:28:47.083Z,101345.76
2019-06-20T16:31:25.849Z,101355.20
2019-06-20T16:33:41.201Z,101347.14
2019-06-20T16:36:07.394Z,101346.91
2019-06-20T16:38:33.556Z,101345.99
2019-06-20T16:40:59.753Z,101347.72
2019-06-20T16:43:25.964Z,101347.14
2019-06-20T16:45:52.175Z,101343.00
2019-06-20T16:48:18.373Z,101342.19
2019-06-20T16:50:44.511Z,101343.00
2019-06-20T16:53:10.662Z,101339.42
2019-06-20T16:55:36.867Z,101340.23
2019-06-20T16:58:03.057Z,101343.23
2019-06-20T17:00:29.203Z,101341.04
2019-06-20T17:02:55.448Z,101343.23
2019-06-20T17:05:21.594Z,101344.61
2019-06-20T17:07:47.731Z,101338.27
2019-06-20T17:10:13.960Z,101338.84
2019-06-20T17:12:40.200Z,101334.70
2019-06-20T17:15:06.342Z,101334.13
2019-06-20T17:17:32.908Z,101341.84
2019-06-20T17:19:59.057Z,101341.84
2019-06-20T17:22:25.271Z,101344.61
2019-06-20T17:24:51.451Z,101351.52
2019-06-20T17:27:17.625Z,101357.28
2019-06-20T17:29:43.774Z,101358.44
2019-06-20T17:32:09.956Z,101358.44
2019-06-20T17:34:36.109Z,101363.73
2019-06-20T17:37:02.247Z,101361.53
2019-06-20T17:39:28.431Z,101366.49
2019-06-20T17:41:55.744Z,101363.49
2019-06-20T17:44:22.115Z,101367.64
2019-06-20T17:46:48.264Z,101373.73
2019-06-20T17:49:14.440Z,101375.73
2019-06-20T17:51:40.586Z,101372.97
2019-06-20T17:54:06.823Z,101375.73
2019-06-20T17:56:33.005Z,101375.73
2019-06-20T17:58:59.125Z,101381.25
2019-06-20T18:01:25.263Z,101378.49
2019-06-20T18:03:51.435Z,101375.49
2019-06-20T18:06:17.576Z,101384.80
2019-06-20T18:08:43.764Z,101382.64
2019-06-20T18:11:09.911Z,101386.78
2019-06-20T18:13:36.046Z,101383.78
2019-06-20T18:16:02.247Z,101388.74
2019-06-20T18:18:28.390Z,101392.31
2019-06-20T18:20:54.551Z,101399.22
2019-06-20T18:23:20.757Z,101399.22
2019-06-20T18:25:46.874Z,101395.08
2019-06-20T18:28:13.025Z,101402.56
2019-06-20T18:30:39.208Z,101406.13
2019-06-20T18:33:05.408Z,101405.09
2019-06-20T18:35:31.558Z,101406.70
2019-06-20T18:37:57.780Z,101408.66
2019-06-20T18:40:23.943Z,101412.81
2019-06-20T18:42:50.092Z,101417.19
2019-06-20T18:45:16.293Z,101415.00
2019-06-20T18:47:42.432Z,101419.72
2019-06-20T18:50:08.595Z,101431.01
2019-06-20T18:52:48.199Z,101434.92
2019-06-20T18:55:02.625Z,101440.69
2019-06-20T18:57:28.811Z,101448.73
2019-06-20T18:59:54.956Z,101451.50
2019-06-20T19:02:21.130Z,101454.27
2019-06-20T19:04:50.751Z,101452.66
2019-06-20T19:07:15.180Z,101455.41
2019-06-20T19:09:41.331Z,101456.22
2019-06-20T19:12:07.489Z,101463.70
2019-06-20T19:14:33.660Z,101467.85
2019-06-20T19:16:59.890Z,101464.85
2019-06-20T19:19:26.067Z,101466.94
2019-06-20T19:21:52.252Z,101467.37
2019-06-20T19:24:18.400Z,101478.67
2019-06-20T19:26:44.553Z,101466.23
2019-06-20T19:29:10.719Z,101478.91
2019-06-20T19:31:36.875Z,101486.97
2019-06-20T19:34:03.025Z,101481.67
2019-06-20T19:36:29.195Z,101485.82
2019-06-20T19:38:55.351Z,101491.34
2019-06-20T19:41:21.503Z,101487.20
2019-06-20T19:43:47.682Z,101496.30
2019-06-20T19:46:13.836Z,101486.97
2019-06-20T19:48:39.962Z,101496.30
2019-06-20T19:51:06.185Z,101495.26
2019-06-20T19:53:32.362Z,101492.02
2019-06-20T19:55:58.519Z,101499.17
2019-06-20T19:58:24.723Z,101494.21
2019-06-20T20:00:50.866Z,101496.41
2019-06-20T20:03:16.998Z,101496.17
2019-06-20T20:05:43.197Z,101498.94
2019-06-20T20:08:09.319Z,101503.08
2019-06-20T20:10:35.473Z,101510.56
2019-06-20T20:13:01.668Z,101508.41
2019-06-20T20:15:27.810Z,101507.02
2019-06-20T20:17:53.983Z,101509.31
2019-06-20T20:20:20.164Z,101507.13
2019-06-20T20:22:46.320Z,101511.61
2019-06-20T20:25:12.502Z,101514.16
2019-06-20T20:27:38.644Z,101511.97
2019-06-20T20:30:04.783Z,101521.07
2019-06-20T20:32:31.148Z,101516.12
2019-06-20T20:34:57.291Z,101518.07
2019-06-20T20:37:23.437Z,101524.38
2019-06-20T20:39:49.619Z,101523.81
2019-06-20T20:42:17.820Z,101527.38
2019-06-20T20:44:43.617Z,101529.80
2019-06-20T20:47:09.777Z,101530.03
2019-06-20T20:49:35.932Z,101532.36
2019-06-20T20:52:02.086Z,101533.72
2019-06-20T20:54:28.251Z,101534.42
2019-06-20T20:56:54.437Z,101534.66
2019-06-20T20:59:20.583Z,101538.81
2019-06-20T21:01:46.718Z,101534.30
2019-06-20T21:04:13.095Z,101535.11
2019-06-20T21:06:39.240Z,101539.59
2019-06-20T21:09:05.410Z,101537.42
2019-06-20T21:11:31.600Z,101544.34
2019-06-20T21:13:57.741Z,101545.81
2019-06-20T21:16:23.903Z,101550.30
2019-06-20T21:18:50.070Z,101549.27
2019-06-20T21:21:16.217Z,101553.77
2019-06-20T21:23:42.357Z,101555.15
2019-06-20T21:26:08.551Z,101559.16
2019-06-20T21:28:34.717Z,101556.98
2019-06-20T21:31:00.860Z,101550.09
2019-06-20T21:33:27.037Z,101561.92
2019-06-20T21:36:07.247Z,101566.88
2019-06-20T21:38:21.059Z,101569.44
2019-06-20T21:40:47.245Z,101563.44
2019-06-20T21:43:13.400Z,101559.53
2019-06-20T21:45:39.545Z,101565.30
2019-06-20T21:48:05.711Z,101569.08
2019-06-20T21:50:31.858Z,101562.73
2019-06-20T21:52:58.000Z,101567.82
2019-06-20T21:55:24.184Z,101570.11
2019-06-20T21:57:50.327Z,101574.59
2019-06-20T22:00:16.475Z,101569.53
2019-06-20T22:02:42.663Z,101569.89
2019-06-20T22:05:08.802Z,101570.23
2019-06-20T22:07:34.951Z,101570.56
2019-06-20T22:10:01.132Z,101571.50
2019-06-20T22:12:27.280Z,101562.50
2019-06-20T22:14:53.426Z,101567.78
2019-06-20T22:17:19.602Z,101573.10
2019-06-20T22:19:45.736Z,101573.31
2019-06-20T22:22:11.891Z,101578.02
2019-06-20T22:24:38.040Z,101574.81
2019-06-20T22:27:04.179Z,101569.63
2019-06-20T22:29:30.314Z,101572.63
2019-06-20T22:31:56.499Z,101568.00
2019-06-20T22:34:22.684Z,101565.03
2019-06-20T22:36:48.817Z,101568.94
2019-06-20T22:39:15.008Z,101570.56
2019-06-20T22:41:41.159Z,101567.56
2019-06-20T22:44:07.310Z,101571.70
2019-06-20T22:46:33.502Z,101573.09
2019-06-20T22:48:59.656Z,101573.18
2019-06-20T22:51:25.814Z,101575.38
2019-06-20T22:53:51.978Z,101568.83
2019-06-20T22:56:18.131Z,101577.69
2019-06-20T22:58:44.268Z,101569.16
2019-06-20T23:01:10.445Z,101574.45
2019-06-20T23:03:36.590Z,101568.69
2019-06-20T23:06:02.735Z,101569.83
2019-06-20T23:08:28.900Z,101571.00
2019-06-20T23:10:55.084Z,101575.95
2019-06-20T23:13:21.238Z,101576.86
2019-06-20T23:15:47.408Z,101574.66
2019-06-20T23:18:13.567Z,101574.42
2019-06-20T23:20:39.750Z,101574.76
2019-06-20T23:23:05.894Z,101584.19
2019-06-20T23:25:32.032Z,101582.00
2019-06-20T23:27:58.222Z,101584.52
2019-06-20T23:30:24.373Z,101582.90
2019-06-20T23:32:50.519Z,101582.45
2019-06-20T23:35:16.712Z,101585.42
2019-06-20T23:37:42.860Z,101583.83
2019-06-20T23:40:09.027Z,101584.16
2019-06-20T23:42:35.213Z,101581.97
2019-06-20T23:45:01.350Z,101586.11
2019-06-20T23:47:27.494Z,101581.28
2019-06-20T23:49:53.669Z,101585.43
2019-06-20T23:52:19.892Z,101587.95
2019-06-20T23:54:46.032Z,101582.76
2019-06-20T23:57:12.210Z,101583.33
2019-06-20T23:59:38.356Z,101586.91
